sensor_id;sensor_type;location;lat;lon;timestamp;P1;durP1;ratioP1;P2;durP2;ratioP2
16577;SDS011;8401;52.528;13.340;2022-11-11T00:01:00;11.73;;;3.33;;
16577;SDS011;8401;52.528;13.340;2022-11-11T00:03:27;12.43;;;6.20;;
16577;SDS011;8401;52.528;13.340;2022-11-11T00:05:53;7.97;;;3.03;;
16577;SDS011;8401;52.528;13.340;2022-11-11T00:08:24;8.33;;;2.70;;
16577;SDS011;8401;52.528;13.340;2022-11-11T00:10:49;8.47;;;3.50;;
16577;SDS011;8401;52.528;13.340;2022-11-11T00:13:15;8.77;;;3.20;;
16577;SDS011;8401;52.528;13.340;2022-11-11T00:15:40;8.50;;;2.87;;
16577;SDS011;8401;52.528;13.340;2022-11-11T00:18:08;8.43;;;2.90;;
16577;SDS011;8401;52.528;13.340;2022-11-11T00:20:56;8.77;;;3.40;;
16577;SDS011;8401;52.528;13.340;2022-11-11T00:23:41;9.57;;;2.60;;
16577;SDS011;8401;52.528;13.340;2022-11-11T00:26:26;7.07;;;2.77;;
16577;SDS011;8401;52.528;13.340;2022-11-11T00:28:52;6.57;;;2.70;;
16577;SDS011;8401;52.528;13.340;2022-11-11T00:31:18;7.50;;;3.33;;
16577;SDS011;8401;52.528;13.340;2022-11-11T00:33:43;10.20;;;2.93;;
16577;SDS011;8401;52.528;13.340;2022-11-11T00:36:09;7.03;;;3.30;;
16577;SDS011;8401;52.528;13.340;2022-11-11T00:38:35;11.57;;;2.87;;
16577;SDS011;8401;52.528;13.340;2022-11-11T00:41:09;8.77;;;2.90;;
16577;SDS011;8401;52.528;13.340;2022-11-11T00:43:45;7.27;;;3.10;;
16577;SDS011;8401;52.528;13.340;2022-11-11T00:46:12;6.87;;;3.27;;
16577;SDS011;8401;52.528;13.340;2022-11-11T00:48:56;5.67;;;2.80;;
16577;SDS011;8401;52.528;13.340;2022-11-11T00:51:40;8.23;;;3.20;;
16577;SDS011;8401;52.528;13.340;2022-11-11T00:54:07;5.60;;;2.97;;
16577;SDS011;8401;52.528;13.340;2022-11-11T00:56:33;9.23;;;3.30;;
16577;SDS011;8401;52.528;13.340;2022-11-11T00:59:00;7.53;;;3.30;;
16577;SDS011;8401;52.528;13.340;2022-11-11T01:01:27;7.07;;;2.73;;
16577;SDS011;8401;52.528;13.340;2022-11-11T01:03:53;5.53;;;3.00;;
16577;SDS011;8401;52.528;13.340;2022-11-11T01:06:18;7.03;;;3.13;;
16577;SDS011;8401;52.528;13.340;2022-11-11T01:08:44;6.47;;;2.97;;
16577;SDS011;8401;52.528;13.340;2022-11-11T01:11:13;6.20;;;3.27;;
16577;SDS011;8401;52.528;13.340;2022-11-11T01:13:41;9.10;;;3.13;;
16577;SDS011;8401;52.528;13.340;2022-11-11T01:16:10;10.30;;;4.03;;
16577;SDS011;8401;52.528;13.340;2022-11-11T01:18:38;12.30;;;3.40;;
16577;SDS011;8401;52.528;13.340;2022-11-11T01:21:05;6.13;;;2.57;;
16577;SDS011;8401;52.528;13.340;2022-11-11T01:23:35;6.60;;;3.03;;
16577;SDS011;8401;52.528;13.340;2022-11-11T01:26:06;7.47;;;3.10;;
16577;SDS011;8401;52.528;13.340;2022-11-11T01:28:39;10.90;;;3.10;;
16577;SDS011;8401;52.528;13.340;2022-11-11T01:31:10;6.37;;;2.60;;
16577;SDS011;8401;52.528;13.340;2022-11-11T01:33:37;6.80;;;2.90;;
16577;SDS011;8401;52.528;13.340;2022-11-11T01:36:05;9.03;;;2.70;;
16577;SDS011;8401;52.528;13.340;2022-11-11T01:38:36;8.37;;;3.23;;
16577;SDS011;8401;52.528;13.340;2022-11-11T01:41:03;8.83;;;3.03;;
16577;SDS011;8401;52.528;13.340;2022-11-11T01:43:51;6.47;;;2.80;;
16577;SDS011;8401;52.528;13.340;2022-11-11T01:54:32;6.67;;;3.13;;
16577;SDS011;8401;52.528;13.340;2022-11-11T01:57:02;7.30;;;2.87;;
16577;SDS011;8401;52.528;13.340;2022-11-11T01:59:33;6.43;;;3.30;;
16577;SDS011;8401;52.528;13.340;2022-11-11T02:02:02;10.47;;;3.03;;
16577;SDS011;8401;52.528;13.340;2022-11-11T02:04:33;8.20;;;3.43;;
16577;SDS011;8401;52.528;13.340;2022-11-11T02:07:19;7.53;;;2.87;;
16577;SDS011;8401;52.528;13.340;2022-11-11T02:09:46;9.27;;;3.00;;
16577;SDS011;8401;52.528;13.340;2022-11-11T02:12:12;6.87;;;2.90;;
16577;SDS011;8401;52.528;13.340;2022-11-11T02:14:57;8.60;;;3.07;;
16577;SDS011;8401;52.528;13.340;2022-11-11T02:17:25;8.97;;;2.83;;
16577;SDS011;8401;52.528;13.340;2022-11-11T02:19:53;5.80;;;3.30;;
16577;SDS011;8401;52.528;13.340;2022-11-11T02:22:32;8.37;;;3.00;;
16577;SDS011;8401;52.528;13.340;2022-11-11T02:25:20;6.90;;;2.93;;
16577;SDS011;8401;52.528;13.340;2022-11-11T02:27:49;7.83;;;2.97;;
16577;SDS011;8401;52.528;13.340;2022-11-11T02:30:17;8.33;;;3.10;;
16577;SDS011;8401;52.528;13.340;2022-11-11T02:32:45;11.07;;;3.50;;
16577;SDS011;8401;52.528;13.340;2022-11-11T02:35:17;6.30;;;3.30;;
16577;SDS011;8401;52.528;13.340;2022-11-11T02:37:47;7.53;;;3.13;;
16577;SDS011;8401;52.528;13.340;2022-11-11T02:40:17;8.90;;;2.60;;
16577;SDS011;8401;52.528;13.340;2022-11-11T02:42:49;6.13;;;2.50;;
16577;SDS011;8401;52.528;13.340;2022-11-11T02:45:14;8.23;;;3.00;;
16577;SDS011;8401;52.528;13.340;2022-11-11T02:47:40;6.27;;;3.10;;
16577;SDS011;8401;52.528;13.340;2022-11-11T02:50:06;7.17;;;2.80;;
16577;SDS011;8401;52.528;13.340;2022-11-11T02:52:31;8.27;;;3.07;;
16577;SDS011;8401;52.528;13.340;2022-11-11T02:54:57;6.03;;;3.03;;
16577;SDS011;8401;52.528;13.340;2022-11-11T02:57:23;5.03;;;3.03;;
16577;SDS011;8401;52.528;13.340;2022-11-11T02:59:49;8.27;;;3.20;;
16577;SDS011;8401;52.528;13.340;2022-11-11T03:02:14;10.33;;;2.53;;
16577;SDS011;8401;52.528;13.340;2022-11-11T03:04:40;8.17;;;2.43;;
16577;SDS011;8401;52.528;13.340;2022-11-11T03:07:06;6.40;;;2.90;;
16577;SDS011;8401;52.528;13.340;2022-11-11T03:09:32;7.57;;;3.07;;
16577;SDS011;8401;52.528;13.340;2022-11-11T03:11:57;7.37;;;3.17;;
16577;SDS011;8401;52.528;13.340;2022-11-11T03:14:23;9.13;;;3.17;;
16577;SDS011;8401;52.528;13.340;2022-11-11T03:16:49;6.00;;;2.90;;
16577;SDS011;8401;52.528;13.340;2022-11-11T03:19:33;7.60;;;2.90;;
16577;SDS011;8401;52.528;13.340;2022-11-11T03:21:59;5.63;;;2.97;;
16577;SDS011;8401;52.528;13.340;2022-11-11T03:24:25;4.73;;;2.53;;
16577;SDS011;8401;52.528;13.340;2022-11-11T03:27:14;10.33;;;2.90;;
16577;SDS011;8401;52.528;13.340;2022-11-11T03:29:40;9.40;;;3.23;;
16577;SDS011;8401;52.528;13.340;2022-11-11T03:32:08;3.53;;;2.40;;
16577;SDS011;8401;52.528;13.340;2022-11-11T03:34:34;6.30;;;3.07;;
16577;SDS011;8401;52.528;13.340;2022-11-11T03:37:04;7.17;;;3.37;;
16577;SDS011;8401;52.528;13.340;2022-11-11T03:39:49;5.90;;;3.10;;
16577;SDS011;8401;52.528;13.340;2022-11-11T03:42:15;5.13;;;2.60;;
16577;SDS011;8401;52.528;13.340;2022-11-11T03:44:43;6.73;;;3.33;;
16577;SDS011;8401;52.528;13.340;2022-11-11T03:47:09;10.07;;;3.13;;
16577;SDS011;8401;52.528;13.340;2022-11-11T03:49:35;7.60;;;3.43;;
16577;SDS011;8401;52.528;13.340;2022-11-11T03:52:00;6.83;;;3.17;;
16577;SDS011;8401;52.528;13.340;2022-11-11T03:54:26;5.90;;;3.27;;
16577;SDS011;8401;52.528;13.340;2022-11-11T03:56:55;6.50;;;3.17;;
16577;SDS011;8401;52.528;13.340;2022-11-11T03:59:46;8.33;;;2.87;;
16577;SDS011;8401;52.528;13.340;2022-11-11T04:02:14;7.57;;;3.27;;
16577;SDS011;8401;52.528;13.340;2022-11-11T04:04:59;7.10;;;3.07;;
16577;SDS011;8401;52.528;13.340;2022-11-11T04:07:43;4.70;;;3.07;;
16577;SDS011;8401;52.528;13.340;2022-11-11T04:13:13;5.77;;;3.33;;
16577;SDS011;8401;52.528;13.340;2022-11-11T04:15:57;6.17;;;3.03;;
16577;SDS011;8401;52.528;13.340;2022-11-11T04:18:37;10.23;;;4.00;;
16577;SDS011;8401;52.528;13.340;2022-11-11T04:21:22;8.40;;;3.27;;
16577;SDS011;8401;52.528;13.340;2022-11-11T04:24:08;3.97;;;2.90;;
16577;SDS011;8401;52.528;13.340;2022-11-11T04:27:03;8.30;;;2.93;;
16577;SDS011;8401;52.528;13.340;2022-11-11T04:29:58;6.33;;;3.67;;
16577;SDS011;8401;52.528;13.340;2022-11-11T04:32:26;8.40;;;3.13;;
16577;SDS011;8401;52.528;13.340;2022-11-11T04:35:07;10.03;;;3.37;;
16577;SDS011;8401;52.528;13.340;2022-11-11T04:37:36;8.23;;;3.00;;
16577;SDS011;8401;52.528;13.340;2022-11-11T04:40:14;5.87;;;3.10;;
16577;SDS011;8401;52.528;13.340;2022-11-11T04:42:58;7.87;;;3.47;;
16577;SDS011;8401;52.528;13.340;2022-11-11T04:45:24;6.17;;;3.10;;
16577;SDS011;8401;52.528;13.340;2022-11-11T04:48:06;6.40;;;3.20;;
16577;SDS011;8401;52.528;13.340;2022-11-11T04:50:56;7.67;;;2.70;;
16577;SDS011;8401;52.528;13.340;2022-11-11T04:53:22;6.83;;;2.70;;
16577;SDS011;8401;52.528;13.340;2022-11-11T04:55:47;4.67;;;2.70;;
16577;SDS011;8401;52.528;13.340;2022-11-11T05:01:18;7.90;;;2.80;;
16577;SDS011;8401;52.528;13.340;2022-11-11T05:04:03;9.47;;;2.93;;
16577;SDS011;8401;52.528;13.340;2022-11-11T05:06:31;9.87;;;3.50;;
16577;SDS011;8401;52.528;13.340;2022-11-11T05:09:16;8.70;;;3.33;;
16577;SDS011;8401;52.528;13.340;2022-11-11T05:11:44;5.30;;;3.17;;
16577;SDS011;8401;52.528;13.340;2022-11-11T05:14:11;8.83;;;3.57;;
16577;SDS011;8401;52.528;13.340;2022-11-11T05:16:56;9.87;;;3.27;;
16577;SDS011;8401;52.528;13.340;2022-11-11T05:19:41;6.47;;;3.93;;
16577;SDS011;8401;52.528;13.340;2022-11-11T05:22:29;6.83;;;3.20;;
16577;SDS011;8401;52.528;13.340;2022-11-11T05:24:58;7.40;;;3.00;;
16577;SDS011;8401;52.528;13.340;2022-11-11T05:27:45;6.00;;;3.07;;
16577;SDS011;8401;52.528;13.340;2022-11-11T05:30:18;6.33;;;2.90;;
16577;SDS011;8401;52.528;13.340;2022-11-11T05:32:47;4.80;;;3.30;;
16577;SDS011;8401;52.528;13.340;2022-11-11T05:35:21;4.97;;;3.20;;
16577;SDS011;8401;52.528;13.340;2022-11-11T05:37:50;8.80;;;3.30;;
16577;SDS011;8401;52.528;13.340;2022-11-11T05:40:34;8.47;;;2.93;;
16577;SDS011;8401;52.528;13.340;2022-11-11T05:43:00;7.93;;;3.30;;
16577;SDS011;8401;52.528;13.340;2022-11-11T05:45:25;6.40;;;3.30;;
16577;SDS011;8401;52.528;13.340;2022-11-11T05:47:51;11.97;;;3.43;;
16577;SDS011;8401;52.528;13.340;2022-11-11T05:50:16;7.13;;;3.60;;
16577;SDS011;8401;52.528;13.340;2022-11-11T05:52:46;5.07;;;3.03;;
16577;SDS011;8401;52.528;13.340;2022-11-11T05:55:13;5.10;;;3.03;;
16577;SDS011;8401;52.528;13.340;2022-11-11T05:57:38;6.87;;;3.03;;
16577;SDS011;8401;52.528;13.340;2022-11-11T06:00:04;5.63;;;2.90;;
16577;SDS011;8401;52.528;13.340;2022-11-11T06:02:30;7.40;;;3.30;;
16577;SDS011;8401;52.528;13.340;2022-11-11T06:04:56;7.13;;;3.13;;
16577;SDS011;8401;52.528;13.340;2022-11-11T06:07:21;5.07;;;3.20;;
16577;SDS011;8401;52.528;13.340;2022-11-11T06:09:47;6.97;;;2.87;;
16577;SDS011;8401;52.528;13.340;2022-11-11T06:12:13;4.97;;;2.90;;
16577;SDS011;8401;52.528;13.340;2022-11-11T06:14:38;8.93;;;2.67;;
16577;SDS011;8401;52.528;13.340;2022-11-11T06:17:04;6.30;;;2.70;;
16577;SDS011;8401;52.528;13.340;2022-11-11T06:19:29;8.83;;;3.07;;
16577;SDS011;8401;52.528;13.340;2022-11-11T06:21:55;9.60;;;3.17;;
16577;SDS011;8401;52.528;13.340;2022-11-11T06:24:20;8.90;;;2.87;;
16577;SDS011;8401;52.528;13.340;2022-11-11T06:26:46;8.67;;;3.63;;
16577;SDS011;8401;52.528;13.340;2022-11-11T06:29:12;7.27;;;3.10;;
16577;SDS011;8401;52.528;13.340;2022-11-11T06:31:38;5.40;;;2.80;;
16577;SDS011;8401;52.528;13.340;2022-11-11T06:34:03;8.47;;;2.90;;
16577;SDS011;8401;52.528;13.340;2022-11-11T06:36:29;7.07;;;3.23;;
16577;SDS011;8401;52.528;13.340;2022-11-11T06:38:54;7.30;;;3.10;;
16577;SDS011;8401;52.528;13.340;2022-11-11T06:41:20;4.23;;;2.33;;
16577;SDS011;8401;52.528;13.340;2022-11-11T06:43:48;6.33;;;3.00;;
16577;SDS011;8401;52.528;13.340;2022-11-11T06:46:32;8.20;;;3.57;;
16577;SDS011;8401;52.528;13.340;2022-11-11T06:48:57;7.40;;;2.90;;
16577;SDS011;8401;52.528;13.340;2022-11-11T06:51:23;6.70;;;2.90;;
16577;SDS011;8401;52.528;13.340;2022-11-11T06:53:49;6.70;;;2.90;;
16577;SDS011;8401;52.528;13.340;2022-11-11T06:56:14;8.40;;;3.60;;
16577;SDS011;8401;52.528;13.340;2022-11-11T06:58:40;6.07;;;2.83;;
16577;SDS011;8401;52.528;13.340;2022-11-11T07:01:06;7.03;;;3.03;;
16577;SDS011;8401;52.528;13.340;2022-11-11T07:03:33;6.80;;;2.93;;
16577;SDS011;8401;52.528;13.340;2022-11-11T07:05:59;4.40;;;2.57;;
16577;SDS011;8401;52.528;13.340;2022-11-11T07:08:26;4.23;;;2.77;;
16577;SDS011;8401;52.528;13.340;2022-11-11T07:10:52;5.47;;;2.67;;
16577;SDS011;8401;52.528;13.340;2022-11-11T07:13:18;4.60;;;3.10;;
16577;SDS011;8401;52.528;13.340;2022-11-11T07:15:44;5.30;;;2.63;;
16577;SDS011;8401;52.528;13.340;2022-11-11T07:18:10;8.03;;;2.63;;
16577;SDS011;8401;52.528;13.340;2022-11-11T07:20:36;8.80;;;3.03;;
16577;SDS011;8401;52.528;13.340;2022-11-11T07:23:03;7.27;;;3.17;;
16577;SDS011;8401;52.528;13.340;2022-11-11T07:25:29;5.30;;;2.73;;
16577;SDS011;8401;52.528;13.340;2022-11-11T07:27:55;5.07;;;2.77;;
16577;SDS011;8401;52.528;13.340;2022-11-11T07:30:20;6.13;;;3.00;;
16577;SDS011;8401;52.528;13.340;2022-11-11T07:32:47;9.50;;;3.10;;
16577;SDS011;8401;52.528;13.340;2022-11-11T07:35:14;7.07;;;2.77;;
16577;SDS011;8401;52.528;13.340;2022-11-11T07:37:40;7.33;;;2.53;;
16577;SDS011;8401;52.528;13.340;2022-11-11T07:40:07;4.27;;;2.40;;
16577;SDS011;8401;52.528;13.340;2022-11-11T07:42:37;8.57;;;2.87;;
16577;SDS011;8401;52.528;13.340;2022-11-11T07:45:03;7.03;;;3.00;;
16577;SDS011;8401;52.528;13.340;2022-11-11T07:47:30;6.50;;;3.00;;
16577;SDS011;8401;52.528;13.340;2022-11-11T07:49:55;4.40;;;2.73;;
16577;SDS011;8401;52.528;13.340;2022-11-11T07:52:21;9.27;;;3.23;;
16577;SDS011;8401;52.528;13.340;2022-11-11T07:54:48;7.90;;;2.90;;
16577;SDS011;8401;52.528;13.340;2022-11-11T07:57:14;8.47;;;2.97;;
16577;SDS011;8401;52.528;13.340;2022-11-11T07:59:40;6.10;;;3.17;;
16577;SDS011;8401;52.528;13.340;2022-11-11T08:02:09;9.53;;;3.50;;
16577;SDS011;8401;52.528;13.340;2022-11-11T08:04:35;5.93;;;3.63;;
16577;SDS011;8401;52.528;13.340;2022-11-11T08:07:01;6.30;;;3.03;;
16577;SDS011;8401;52.528;13.340;2022-11-11T08:09:26;5.80;;;2.90;;
16577;SDS011;8401;52.528;13.340;2022-11-11T08:11:52;9.00;;;3.17;;
16577;SDS011;8401;52.528;13.340;2022-11-11T08:14:36;6.23;;;2.73;;
16577;SDS011;8401;52.528;13.340;2022-11-11T08:17:02;6.03;;;3.20;;
16577;SDS011;8401;52.528;13.340;2022-11-11T08:19:27;6.73;;;2.97;;
16577;SDS011;8401;52.528;13.340;2022-11-11T08:21:53;7.73;;;3.67;;
16577;SDS011;8401;52.528;13.340;2022-11-11T08:24:19;7.50;;;3.37;;
16577;SDS011;8401;52.528;13.340;2022-11-11T08:26:44;9.20;;;2.83;;
16577;SDS011;8401;52.528;13.340;2022-11-11T08:29:10;5.60;;;3.03;;
16577;SDS011;8401;52.528;13.340;2022-11-11T08:31:36;12.30;;;3.60;;
16577;SDS011;8401;52.528;13.340;2022-11-11T08:34:03;6.43;;;3.00;;
16577;SDS011;8401;52.528;13.340;2022-11-11T08:36:29;7.93;;;3.17;;
16577;SDS011;8401;52.528;13.340;2022-11-11T08:38:55;7.90;;;3.10;;
16577;SDS011;8401;52.528;13.340;2022-11-11T08:41:21;7.67;;;3.83;;
16577;SDS011;8401;52.528;13.340;2022-11-11T08:43:50;8.87;;;3.60;;
16577;SDS011;8401;52.528;13.340;2022-11-11T08:46:19;5.43;;;3.17;;
16577;SDS011;8401;52.528;13.340;2022-11-11T08:48:45;5.00;;;3.00;;
16577;SDS011;8401;52.528;13.340;2022-11-11T08:51:11;6.37;;;3.20;;
16577;SDS011;8401;52.528;13.340;2022-11-11T08:53:37;10.03;;;3.63;;
16577;SDS011;8401;52.528;13.340;2022-11-11T08:56:03;7.47;;;3.60;;
16577;SDS011;8401;52.528;13.340;2022-11-11T08:58:29;5.63;;;3.40;;
16577;SDS011;8401;52.528;13.340;2022-11-11T09:00:55;9.53;;;3.40;;
16577;SDS011;8401;52.528;13.340;2022-11-11T09:03:21;4.83;;;2.60;;
16577;SDS011;8401;52.528;13.340;2022-11-11T09:05:47;5.80;;;2.87;;
16577;SDS011;8401;52.528;13.340;2022-11-11T09:08:13;6.13;;;3.47;;
16577;SDS011;8401;52.528;13.340;2022-11-11T09:10:38;6.17;;;2.97;;
16577;SDS011;8401;52.528;13.340;2022-11-11T09:13:04;8.33;;;3.13;;
16577;SDS011;8401;52.528;13.340;2022-11-11T09:15:30;6.43;;;2.70;;
16577;SDS011;8401;52.528;13.340;2022-11-11T09:17:56;5.27;;;3.37;;
16577;SDS011;8401;52.528;13.340;2022-11-11T09:20:22;7.67;;;3.10;;
16577;SDS011;8401;52.528;13.340;2022-11-11T09:22:48;5.13;;;3.33;;
16577;SDS011;8401;52.528;13.340;2022-11-11T09:25:15;9.97;;;3.63;;
16577;SDS011;8401;52.528;13.340;2022-11-11T09:27:41;7.23;;;3.23;;
16577;SDS011;8401;52.528;13.340;2022-11-11T09:30:17;4.43;;;2.73;;
16577;SDS011;8401;52.528;13.340;2022-11-11T09:32:43;5.53;;;3.00;;
16577;SDS011;8401;52.528;13.340;2022-11-11T09:35:08;6.77;;;3.17;;
16577;SDS011;8401;52.528;13.340;2022-11-11T09:37:34;5.33;;;2.73;;
16577;SDS011;8401;52.528;13.340;2022-11-11T09:40:00;5.00;;;3.03;;
16577;SDS011;8401;52.528;13.340;2022-11-11T09:48:03;4.97;;;3.00;;
16577;SDS011;8401;52.528;13.340;2022-11-11T09:50:32;6.83;;;2.90;;
16577;SDS011;8401;52.528;13.340;2022-11-11T09:53:13;6.77;;;3.20;;
16577;SDS011;8401;52.528;13.340;2022-11-11T09:55:48;7.63;;;2.80;;
16577;SDS011;8401;52.528;13.340;2022-11-11T09:58:18;3.67;;;2.47;;
16577;SDS011;8401;52.528;13.340;2022-11-11T10:00:45;6.27;;;3.27;;
16577;SDS011;8401;52.528;13.340;2022-11-11T10:03:18;6.73;;;3.57;;
16577;SDS011;8401;52.528;13.340;2022-11-11T10:05:48;4.83;;;2.70;;
16577;SDS011;8401;52.528;13.340;2022-11-11T10:08:26;7.50;;;3.83;;
16577;SDS011;8401;52.528;13.340;2022-11-11T10:10:54;8.83;;;4.10;;
16577;SDS011;8401;52.528;13.340;2022-11-11T10:13:31;7.27;;;4.07;;
16577;SDS011;8401;52.528;13.340;2022-11-11T10:24:12;6.20;;;3.67;;
16577;SDS011;8401;52.528;13.340;2022-11-11T10:26:43;18.27;;;4.10;;
16577;SDS011;8401;52.528;13.340;2022-11-11T10:29:17;6.03;;;3.70;;
16577;SDS011;8401;52.528;13.340;2022-11-11T10:32:02;8.17;;;3.07;;
16577;SDS011;8401;52.528;13.340;2022-11-11T10:34:35;10.60;;;4.20;;
16577;SDS011;8401;52.528;13.340;2022-11-11T10:37:01;6.53;;;3.20;;
16577;SDS011;8401;52.528;13.340;2022-11-11T10:42:16;4.67;;;2.80;;
16577;SDS011;8401;52.528;13.340;2022-11-11T10:44:42;6.03;;;2.17;;
16577;SDS011;8401;52.528;13.340;2022-11-11T10:47:18;2.93;;;2.00;;
16577;SDS011;8401;52.528;13.340;2022-11-11T10:50:34;5.07;;;2.10;;
16577;SDS011;8401;52.528;13.340;2022-11-11T10:52:46;4.23;;;2.43;;
16577;SDS011;8401;52.528;13.340;2022-11-11T11:00:21;5.17;;;2.30;;
16577;SDS011;8401;52.528;13.340;2022-11-11T11:02:53;7.17;;;2.30;;
16577;SDS011;8401;52.528;13.340;2022-11-11T11:07:55;4.20;;;2.60;;
16577;SDS011;8401;52.528;13.340;2022-11-11T11:10:26;9.97;;;2.97;;
16577;SDS011;8401;52.528;13.340;2022-11-11T11:13:24;2.80;;;2.50;;
16577;SDS011;8401;52.528;13.340;2022-11-11T11:16:03;5.00;;;2.57;;
16577;SDS011;8401;52.528;13.340;2022-11-11T11:18:33;5.57;;;2.87;;
16577;SDS011;8401;52.528;13.340;2022-11-11T11:21:00;5.00;;;2.40;;
16577;SDS011;8401;52.528;13.340;2022-11-11T11:23:37;4.47;;;2.20;;
16577;SDS011;8401;52.528;13.340;2022-11-11T11:26:03;5.23;;;2.40;;
16577;SDS011;8401;52.528;13.340;2022-11-11T11:28:30;5.40;;;2.50;;
16577;SDS011;8401;52.528;13.340;2022-11-11T11:31:04;6.57;;;2.53;;
16577;SDS011;8401;52.528;13.340;2022-11-11T11:36:19;4.57;;;2.03;;
16577;SDS011;8401;52.528;13.340;2022-11-11T11:38:46;7.27;;;2.37;;
16577;SDS011;8401;52.528;13.340;2022-11-11T11:41:16;4.33;;;1.70;;
16577;SDS011;8401;52.528;13.340;2022-11-11T11:44:00;3.90;;;1.97;;
16577;SDS011;8401;52.528;13.340;2022-11-11T11:46:27;3.70;;;1.40;;
16577;SDS011;8401;52.528;13.340;2022-11-11T11:49:56;4.20;;;1.77;;
16577;SDS011;8401;52.528;13.340;2022-11-11T11:52:17;3.30;;;1.90;;
16577;SDS011;8401;52.528;13.340;2022-11-11T11:55:05;4.73;;;1.80;;
16577;SDS011;8401;52.528;13.340;2022-11-11T12:05:33;6.27;;;1.93;;
16577;SDS011;8401;52.528;13.340;2022-11-11T12:11:08;2.53;;;1.63;;
16577;SDS011;8401;52.528;13.340;2022-11-11T12:16:42;4.53;;;2.07;;
16577;SDS011;8401;52.528;13.340;2022-11-11T12:24:44;3.53;;;1.70;;
16577;SDS011;8401;52.528;13.340;2022-11-11T12:27:24;2.93;;;1.63;;
16577;SDS011;8401;52.528;13.340;2022-11-11T12:30:09;7.43;;;1.90;;
16577;SDS011;8401;52.528;13.340;2022-11-11T12:51:48;3.90;;;2.00;;
16577;SDS011;8401;52.528;13.340;2022-11-11T12:57:34;3.90;;;1.97;;
16577;SDS011;8401;52.528;13.340;2022-11-11T13:00:19;3.70;;;1.47;;
16577;SDS011;8401;52.528;13.340;2022-11-11T13:16:06;5.67;;;1.70;;
16577;SDS011;8401;52.528;13.340;2022-11-11T13:21:31;4.97;;;2.17;;
16577;SDS011;8401;52.528;13.340;2022-11-11T13:24:20;3.37;;;2.10;;
16577;SDS011;8401;52.528;13.340;2022-11-11T13:33:02;6.33;;;1.57;;
16577;SDS011;8401;52.528;13.340;2022-11-11T13:35:35;4.27;;;1.47;;
16577;SDS011;8401;52.528;13.340;2022-11-11T13:38:04;4.13;;;1.70;;
16577;SDS011;8401;52.528;13.340;2022-11-11T13:40:35;5.47;;;2.13;;
16577;SDS011;8401;52.528;13.340;2022-11-11T13:43:16;5.20;;;2.00;;
16577;SDS011;8401;52.528;13.340;2022-11-11T13:45:50;5.80;;;1.70;;
16577;SDS011;8401;52.528;13.340;2022-11-11T13:48:34;4.43;;;2.10;;
16577;SDS011;8401;52.528;13.340;2022-11-11T13:54:04;3.73;;;1.60;;
16577;SDS011;8401;52.528;13.340;2022-11-11T13:56:49;4.90;;;1.80;;
16577;SDS011;8401;52.528;13.340;2022-11-11T13:59:20;5.43;;;1.97;;
16577;SDS011;8401;52.528;13.340;2022-11-11T14:02:52;3.97;;;2.20;;
16577;SDS011;8401;52.528;13.340;2022-11-11T14:12:45;6.57;;;3.93;;
16577;SDS011;8401;52.528;13.340;2022-11-11T14:15:34;5.23;;;2.40;;
16577;SDS011;8401;52.528;13.340;2022-11-11T14:20:44;4.37;;;2.07;;
16577;SDS011;8401;52.528;13.340;2022-11-11T14:25:49;4.03;;;1.90;;
16577;SDS011;8401;52.528;13.340;2022-11-11T14:28:26;4.03;;;1.90;;
16577;SDS011;8401;52.528;13.340;2022-11-11T14:31:42;3.67;;;1.97;;
16577;SDS011;8401;52.528;13.340;2022-11-11T14:41:47;3.27;;;2.07;;
16577;SDS011;8401;52.528;13.340;2022-11-11T14:44:55;4.37;;;2.57;;
16577;SDS011;8401;52.528;13.340;2022-11-11T14:57:36;5.07;;;2.30;;
16577;SDS011;8401;52.528;13.340;2022-11-11T15:00:21;4.13;;;1.97;;
16577;SDS011;8401;52.528;13.340;2022-11-11T15:03:02;5.47;;;2.10;;
16577;SDS011;8401;52.528;13.340;2022-11-11T15:05:58;3.23;;;1.83;;
16577;SDS011;8401;52.528;13.340;2022-11-11T15:11:19;5.57;;;3.00;;
16577;SDS011;8401;52.528;13.340;2022-11-11T15:14:33;4.80;;;2.70;;
16577;SDS011;8401;52.528;13.340;2022-11-11T15:28:24;4.67;;;2.23;;
16577;SDS011;8401;52.528;13.340;2022-11-11T15:33:55;4.20;;;2.00;;
16577;SDS011;8401;52.528;13.340;2022-11-11T15:39:15;5.97;;;2.90;;
16577;SDS011;8401;52.528;13.340;2022-11-11T15:41:45;6.93;;;3.13;;
16577;SDS011;8401;52.528;13.340;2022-11-11T15:44:18;3.90;;;2.27;;
16577;SDS011;8401;52.528;13.340;2022-11-11T15:46:51;9.23;;;3.13;;
16577;SDS011;8401;52.528;13.340;2022-11-11T15:52:30;4.73;;;2.87;;
16577;SDS011;8401;52.528;13.340;2022-11-11T15:54:57;7.33;;;3.10;;
16577;SDS011;8401;52.528;13.340;2022-11-11T15:57:31;5.40;;;2.73;;
16577;SDS011;8401;52.528;13.340;2022-11-11T15:59:59;6.90;;;2.30;;
16577;SDS011;8401;52.528;13.340;2022-11-11T16:02:43;4.30;;;2.47;;
16577;SDS011;8401;52.528;13.340;2022-11-11T16:05:13;5.30;;;2.87;;
16577;SDS011;8401;52.528;13.340;2022-11-11T16:07:44;6.13;;;2.57;;
16577;SDS011;8401;52.528;13.340;2022-11-11T16:10:16;5.63;;;3.27;;
16577;SDS011;8401;52.528;13.340;2022-11-11T16:12:58;9.73;;;4.00;;
16577;SDS011;8401;52.528;13.340;2022-11-11T16:15:49;6.90;;;3.87;;
16577;SDS011;8401;52.528;13.340;2022-11-11T16:21:17;10.57;;;5.93;;
16577;SDS011;8401;52.528;13.340;2022-11-11T16:23:38;13.27;;;6.50;;
16577;SDS011;8401;52.528;13.340;2022-11-11T16:26:05;6.67;;;4.83;;
16577;SDS011;8401;52.528;13.340;2022-11-11T16:28:36;8.47;;;4.07;;
16577;SDS011;8401;52.528;13.340;2022-11-11T16:33:56;9.67;;;5.50;;
16577;SDS011;8401;52.528;13.340;2022-11-11T16:36:25;7.23;;;4.47;;
16577;SDS011;8401;52.528;13.340;2022-11-11T16:38:51;10.37;;;4.20;;
16577;SDS011;8401;52.528;13.340;2022-11-11T16:41:24;12.03;;;5.03;;
16577;SDS011;8401;52.528;13.340;2022-11-11T16:43:52;10.80;;;4.23;;
16577;SDS011;8401;52.528;13.340;2022-11-11T16:48:58;6.27;;;3.63;;
16577;SDS011;8401;52.528;13.340;2022-11-11T16:51:37;6.77;;;4.03;;
16577;SDS011;8401;52.528;13.340;2022-11-11T16:54:08;7.10;;;3.33;;
16577;SDS011;8401;52.528;13.340;2022-11-11T16:56:41;6.50;;;3.20;;
16577;SDS011;8401;52.528;13.340;2022-11-11T16:59:37;7.53;;;3.73;;
16577;SDS011;8401;52.528;13.340;2022-11-11T17:02:18;10.13;;;4.03;;
16577;SDS011;8401;52.528;13.340;2022-11-11T17:04:45;7.57;;;4.37;;
16577;SDS011;8401;52.528;13.340;2022-11-11T17:07:29;11.30;;;6.20;;
16577;SDS011;8401;52.528;13.340;2022-11-11T17:10:10;10.10;;;4.93;;
16577;SDS011;8401;52.528;13.340;2022-11-11T17:12:40;7.07;;;4.57;;
16577;SDS011;8401;52.528;13.340;2022-11-11T17:15:07;10.93;;;5.00;;
16577;SDS011;8401;52.528;13.340;2022-11-11T17:17:36;8.00;;;4.47;;
16577;SDS011;8401;52.528;13.340;2022-11-11T17:20:04;6.60;;;4.13;;
16577;SDS011;8401;52.528;13.340;2022-11-11T17:22:32;8.93;;;5.27;;
16577;SDS011;8401;52.528;13.340;2022-11-11T17:24:58;7.80;;;4.20;;
16577;SDS011;8401;52.528;13.340;2022-11-11T17:27:26;7.13;;;4.63;;
16577;SDS011;8401;52.528;13.340;2022-11-11T17:29:53;16.70;;;9.23;;
16577;SDS011;8401;52.528;13.340;2022-11-11T17:32:19;9.90;;;5.03;;
16577;SDS011;8401;52.528;13.340;2022-11-11T17:34:45;8.10;;;4.33;;
16577;SDS011;8401;52.528;13.340;2022-11-11T17:37:10;8.87;;;4.97;;
16577;SDS011;8401;52.528;13.340;2022-11-11T17:39:36;9.00;;;4.70;;
16577;SDS011;8401;52.528;13.340;2022-11-11T17:42:07;7.70;;;4.77;;
16577;SDS011;8401;52.528;13.340;2022-11-11T17:44:33;8.50;;;4.33;;
16577;SDS011;8401;52.528;13.340;2022-11-11T17:46:58;12.70;;;4.70;;
16577;SDS011;8401;52.528;13.340;2022-11-11T17:49:24;7.00;;;4.33;;
16577;SDS011;8401;52.528;13.340;2022-11-11T17:51:50;9.23;;;4.30;;
16577;SDS011;8401;52.528;13.340;2022-11-11T17:54:15;12.27;;;4.77;;
16577;SDS011;8401;52.528;13.340;2022-11-11T17:56:41;7.97;;;4.40;;
16577;SDS011;8401;52.528;13.340;2022-11-11T17:59:09;12.47;;;4.93;;
16577;SDS011;8401;52.528;13.340;2022-11-11T18:01:34;12.60;;;5.20;;